Time;durP1;ratioP1;P1;durP2;ratioP2;P2;SDS_P1;SDS_P2;PMS_P1;PMS_P2;Temp;Humidity;BMP_temperature;BMP_pressure;BME280_temperature;BME280_humidity;BME280_pressure;Samples;Min_cycle;Max_cycle;Signal;HPM_P1;HPM_P2
2021/08/26 00:00:12;;;;;;;2.60;1.90;;;;;;;14.40;99.19;99693.11;1713056;83;21144;-78
2021/08/26 00:08:15;;;;;;;2.47;2.15;;;;;;;14.46;98.74;99690.08;1712967;82;21523;-78
2021/08/26 00:10:41;;;;;;;2.47;1.90;;;;;;;14.46;98.88;99684.77;1712304;82;21630;-76
2021/08/26 00:13:08;;;;;;;5.15;2.15;;;;;;;14.44;98.73;99684.48;1713124;82;21529;-76
2021/08/26 00:15:37;;;;;;;3.40;2.40;;;;;;;14.46;98.87;99690.08;1713386;83;21637;-78
2021/08/26 00:18:06;;;;;;;3.08;2.10;;;;;;;14.48;99.00;99690.84;1713168;83;21570;-78
2021/08/26 00:20:32;;;;;;;3.22;2.35;;;;;;;14.49;98.63;99694.33;1713268;83;21122;-78
2021/08/26 00:22:59;;;;;;;2.50;2.20;;;;;;;14.52;98.71;99698.63;1713210;82;21118;-75
2021/08/26 00:25:26;;;;;;;3.87;2.20;;;;;;;14.50;98.50;99700.51;1713032;83;21554;-77
2021/08/26 00:27:53;;;;;;;2.17;1.80;;;;;;;14.52;98.51;99701.27;1712968;82;21051;-76
2021/08/26 00:30:20;;;;;;;3.33;2.40;;;;;;;14.54;98.58;99698.94;1713483;83;21047;-77
2021/08/26 00:32:46;;;;;;;2.95;2.20;;;;;;;14.56;98.24;99700.15;1713061;83;21539;-77
2021/08/26 00:35:14;;;;;;;2.72;2.42;;;;;;;14.58;98.28;99695.61;1713386;83;21095;-78
2021/08/26 00:37:41;;;;;;;3.37;2.25;;;;;;;14.60;98.08;99704.33;1712796;83;21194;-77
2021/08/26 00:40:09;;;;;;;3.98;2.02;;;;;;;14.63;97.92;99704.13;1712900;82;21016;-79
2021/08/26 00:42:37;;;;;;;2.60;2.30;;;;;;;14.64;97.94;99699.23;1713161;82;21043;-78
2021/08/26 00:45:05;;;;;;;3.58;2.72;;;;;;;14.66;97.65;99691.56;1713196;82;21059;-77
2021/08/26 00:47:34;;;;;;;2.75;2.35;;;;;;;14.68;97.49;99698.10;1712787;83;21067;-76
2021/08/26 00:50:02;;;;;;;2.75;2.08;;;;;;;14.70;97.46;99701.52;1713238;82;21106;-78
2021/08/26 00:52:28;;;;;;;3.95;2.40;;;;;;;14.72;97.34;99702.25;1713059;83;21064;-78
2021/08/26 00:54:55;;;;;;;2.35;2.15;;;;;;;14.76;97.30;99700.27;1712952;82;21061;-78
2021/08/26 00:57:25;;;;;;;4.50;2.10;;;;;;;14.78;97.06;99699.23;1713060;83;21030;-77
2021/08/26 00:59:55;;;;;;;2.65;2.27;;;;;;;14.81;96.81;99698.19;1713596;83;21049;-77
2021/08/26 01:02:50;;;;;;;1.60;1.43;;;;;;;14.81;96.79;99695.53;1713401;83;21156;-76
2021/08/26 01:05:40;;;;;;;2.62;2.20;;;;;;;14.84;96.44;99702.84;1712705;83;21089;-77
2021/08/26 01:08:16;;;;;;;2.08;1.90;;;;;;;14.83;96.48;99703.77;1712988;82;21593;-77
2021/08/26 01:10:49;;;;;;;2.58;2.00;;;;;;;14.86;96.54;99702.72;1712957;82;21327;-75
2021/08/26 01:13:16;;;;;;;3.52;2.17;;;;;;;14.88;96.28;99706.14;1713662;82;21021;-76
2021/08/26 01:16:07;;;;;;;3.37;2.42;;;;;;;14.86;96.21;99707.58;1713126;83;21142;-77
2021/08/26 01:18:36;;;;;;;3.20;2.42;;;;;;;14.87;96.45;99703.13;1712962;82;21089;-77
2021/08/26 01:21:03;;;;;;;4.55;2.50;;;;;;;14.88;96.24;99706.14;1713380;83;21058;-77
2021/08/26 01:23:40;;;;;;;2.55;2.33;;;;;;;14.89;96.42;99710.52;1713153;83;21584;-77
2021/08/26 01:26:08;;;;;;;3.17;2.33;;;;;;;14.89;96.39;99705.20;1713171;83;21564;-77
2021/08/26 01:28:40;;;;;;;7.30;2.60;;;;;;;14.90;96.33;99702.44;1713033;83;21216;-76
2021/08/26 01:31:09;;;;;;;2.58;2.20;;;;;;;14.89;96.33;99702.08;1713173;82;21057;-76
2021/08/26 01:33:37;;;;;;;3.00;2.40;;;;;;;14.89;96.29;99702.08;1712946;82;21002;-76
2021/08/26 01:36:05;;;;;;;3.40;2.42;;;;;;;14.92;96.13;99704.16;1713076;82;21017;-77
2021/08/26 01:38:33;;;;;;;3.95;2.20;;;;;;;14.92;96.35;99706.81;1712952;83;21066;-76
2021/08/26 01:41:00;;;;;;;2.47;2.27;;;;;;;14.93;96.12;99701.88;1723085;82;21469;-77
2021/08/26 01:43:31;;;;;;;3.75;2.55;;;;;;;14.97;96.14;99706.05;1725884;82;21026;-77
2021/08/26 01:45:57;;;;;;;4.80;2.20;;;;;;;14.97;95.95;99710.03;1726198;83;21100;-77
2021/08/26 01:48:24;;;;;;;3.90;2.52;;;;;;;14.95;95.49;99710.59;1725953;82;21081;-77
2021/08/26 01:50:51;;;;;;;4.22;2.30;;;;;;;14.93;95.75;99707.18;1726029;83;21073;-76
2021/08/26 01:53:19;;;;;;;4.28;2.77;;;;;;;14.95;95.62;99706.61;1726144;83;22146;-78
2021/08/26 01:55:46;;;;;;;2.45;1.87;;;;;;;14.96;95.65;99699.05;1725762;82;21561;-77
2021/08/26 01:58:15;;;;;;;3.25;2.30;;;;;;;14.97;95.85;99696.77;1726285;83;21528;-78
2021/08/26 02:00:42;;;;;;;3.83;2.50;;;;;;;14.99;95.66;99693.08;1726110;83;21063;-77
2021/08/26 02:03:09;;;;;;;3.50;2.35;;;;;;;15.04;95.58;99686.16;1725709;83;21005;-76
2021/08/26 02:05:35;;;;;;;3.33;2.25;;;;;;;15.05;95.29;99683.91;1726121;83;21499;-77
2021/08/26 02:08:03;;;;;;;3.77;2.90;;;;;;;15.05;95.14;99681.25;1725723;82;22051;-78
2021/08/26 02:10:30;;;;;;;3.90;2.60;;;;;;;15.07;95.37;99682.01;1725660;82;21033;-77
2021/08/26 02:12:57;;;;;;;3.45;2.83;;;;;;;15.08;95.08;99683.70;1725658;83;21021;-77
2021/08/26 02:15:23;;;;;;;2.17;1.98;;;;;;;15.08;95.10;99683.70;1725908;82;21048;-75
2021/08/26 02:17:50;;;;;;;4.97;2.50;;;;;;;15.09;95.13;99677.43;1725817;83;21872;-77
2021/08/26 02:20:17;;;;;;;4.62;2.80;;;;;;;15.10;95.00;99673.84;1725658;82;21013;-77
2021/08/26 02:22:43;;;;;;;2.70;2.30;;;;;;;15.09;95.13;99680.08;1725906;83;21098;-77
2021/08/26 02:25:12;;;;;;;2.92;2.60;;;;;;;15.01;94.83;99661.17;1725857;82;21070;-78
2021/08/26 02:27:39;;;;;;;5.08;2.87;;;;;;;15.10;94.83;99672.52;1726133;83;21116;-77
2021/08/26 02:30:07;;;;;;;3.35;3.02;;;;;;;15.09;95.00;99677.43;1726074;82;21513;-77
2021/08/26 02:32:34;;;;;;;3.55;2.52;;;;;;;15.07;94.75;99669.59;1725910;83;21041;-76
2021/08/26 02:35:00;;;;;;;3.12;2.52;;;;;;;15.07;94.91;99674.89;1725875;83;21041;-77
2021/08/26 02:37:26;;;;;;;3.05;2.75;;;;;;;15.07;94.83;99674.05;1726095;82;21600;-77
2021/08/26 02:39:53;;;;;;;2.40;2.20;;;;;;;15.07;94.78;99670.08;1725728;82;21640;-78
2021/08/26 02:42:19;;;;;;;3.20;2.40;;;;;;;15.07;94.99;99676.70;1726074;82;21111;-77
2021/08/26 02:44:48;;;;;;;4.25;3.10;;;;;;;15.06;94.76;99678.48;1725736;82;21548;-76
2021/08/26 02:47:14;;;;;;;4.47;2.50;;;;;;;15.07;94.88;99674.05;1725958;83;21053;-77
2021/08/26 02:49:41;;;;;;;2.08;1.87;;;;;;;15.06;94.69;99674.98;1725858;82;21068;-78
2021/08/26 02:52:07;;;;;;;2.92;1.67;;;;;;;15.03;94.69;99677.84;1726088;83;21096;-77
2021/08/26 02:54:34;;;;;;;2.40;1.85;;;;;;;15.02;94.99;99676.12;1714746;83;21131;-78
2021/08/26 02:57:00;;;;;;;1.70;1.60;;;;;;;15.01;94.93;99674.42;1658372;86;21014;-79
2021/08/26 02:59:27;;;;;;;7.08;1.80;;;;;;;15.02;94.99;99677.44;1658272;86;21088;-77
2021/08/26 03:01:53;;;;;;;5.50;2.00;;;;;;;15.02;95.13;99670.81;1658636;84;21089;-77
2021/08/26 03:04:20;;;;;;;2.17;1.92;;;;;;;15.03;94.72;99664.58;1658209;86;21553;-77
2021/08/26 03:06:46;;;;;;;2.80;2.00;;;;;;;15.04;94.45;99668.92;1641844;87;21108;-77
2021/08/26 03:09:13;;;;;;;2.22;1.70;;;;;;;15.02;94.22;99658.87;1641496;87;21060;-77
2021/08/26 03:11:41;;;;;;;2.22;1.75;;;;;;;15.02;94.18;99662.86;1641969;87;21544;-76
2021/08/26 03:14:11;;;;;;;3.12;1.98;;;;;;;15.04;94.63;99659.64;1641591;87;21116;-78
2021/08/26 03:16:37;;;;;;;3.58;1.98;;;;;;;15.06;94.35;99657.74;1641836;87;21084;-76
2021/08/26 03:19:06;;;;;;;3.60;2.17;;;;;;;15.09;94.27;99658.86;1641659;87;21157;-76
2021/08/26 03:21:35;;;;;;;3.58;2.00;;;;;;;15.11;94.11;99659.63;1641684;87;21113;-77
2021/08/26 03:24:02;;;;;;;4.25;2.00;;;;;;;15.13;93.86;99665.69;1641639;87;21068;-77
2021/08/26 03:26:30;;;;;;;3.17;1.95;;;;;;;15.15;93.97;99662.47;1641540;86;21116;-79
2021/08/26 03:28:57;;;;;;;4.45;2.37;;;;;;;15.15;93.56;99663.80;1641613;86;21388;-79
2021/08/26 03:31:25;;;;;;;2.87;2.10;;;;;;;15.18;93.59;99665.39;1642153;87;21081;-78
2021/08/26 03:33:52;;;;;;;3.50;1.90;;;;;;;15.17;93.36;99656.59;1642378;87;21110;-77
2021/08/26 03:36:18;;;;;;;3.62;2.40;;;;;;;15.18;93.23;99664.91;1641801;87;21085;-79
2021/08/26 03:38:44;;;;;;;3.15;2.17;;;;;;;15.20;93.42;99656.39;1641456;87;21331;-78
2021/08/26 03:41:11;;;;;;;4.75;2.27;;;;;;;15.22;93.17;99649.19;1635897;86;21089;-77
2021/08/26 03:43:37;;;;;;;3.08;2.17;;;;;;;15.24;93.11;99651.75;1631527;87;21221;-77
2021/08/26 03:46:04;;;;;;;2.22;1.87;;;;;;;15.26;93.40;99661.31;1631436;87;21626;-76
2021/08/26 03:48:30;;;;;;;2.20;1.87;;;;;;;15.28;93.09;99662.07;1631629;86;21104;-77
2021/08/26 03:50:57;;;;;;;3.42;1.62;;;;;;;15.34;93.17;99661.30;1631838;87;21084;-77
2021/08/26 03:53:23;;;;;;;2.20;1.77;;;;;;;15.39;92.99;99660.52;1631787;86;21072;-79
2021/08/26 03:55:50;;;;;;;2.92;1.80;;;;;;;15.44;92.83;99661.09;1665082;85;21833;-76
2021/08/26 03:58:16;;;;;;;2.35;1.77;;;;;;;15.43;93.00;99660.22;1670623;85;21093;-79
2021/08/26 04:00:43;;;;;;;2.92;1.90;;;;;;;15.45;92.81;99662.78;1670925;85;21128;-78
2021/08/26 04:03:09;;;;;;;2.67;1.80;;;;;;;15.46;93.01;99662.70;1670957;85;21080;-76
2021/08/26 04:05:36;;;;;;;4.72;1.80;;;;;;;15.48;92.84;99661.25;1671000;85;21106;-77
2021/08/26 04:08:03;;;;;;;2.87;1.92;;;;;;;15.50;92.48;99660.20;1670988;85;21511;-78
2021/08/26 04:10:29;;;;;;;2.85;1.80;;;;;;;15.51;92.54;99652.63;1671093;85;21066;-78
2021/08/26 04:12:57;;;;;;;1.90;1.55;;;;;;;15.53;92.23;99647.23;1670903;85;21101;-78
2021/08/26 04:15:24;;;;;;;3.02;1.60;;;;;;;15.55;92.08;99650.61;1670741;85;21116;-77
2021/08/26 04:17:51;;;;;;;2.37;1.80;;;;;;;15.56;91.98;99654.98;1671078;85;21079;-78
2021/08/26 04:20:18;;;;;;;2.22;1.57;;;;;;;15.55;91.93;99662.55;1670650;85;21979;-77
2021/08/26 04:22:45;;;;;;;2.33;1.75;;;;;;;15.54;92.27;99664.84;1670808;85;21345;-78
2021/08/26 04:25:12;;;;;;;2.55;1.60;;;;;;;15.49;92.34;99657.66;1671214;85;21615;-79
2021/08/26 04:27:38;;;;;;;3.65;1.85;;;;;;;15.50;92.68;99659.34;1671033;84;21497;-78
2021/08/26 04:30:07;;;;;;;4.35;2.58;;;;;;;15.48;92.81;99659.92;1671117;85;21260;-78
2021/08/26 04:32:33;;;;;;;8.00;3.12;;;;;;;15.46;93.39;99656.52;1671075;85;21136;-79
2021/08/26 04:35:00;;;;;;;2.98;2.40;;;;;;;15.45;94.18;99655.67;1670764;85;21060;-79
2021/08/26 04:37:29;;;;;;;7.12;3.45;;;;;;;15.43;94.38;99654.06;1670882;85;21105;-78
2021/08/26 04:39:55;;;;;;;3.65;3.08;;;;;;;15.43;94.56;99652.74;1670727;85;21068;-78
2021/08/26 04:42:22;;;;;;;3.50;2.80;;;;;;;15.41;94.76;99648.00;1689151;84;21545;-78
2021/08/26 04:44:49;;;;;;;6.12;3.25;;;;;;;15.40;94.61;99648.97;1691028;84;21096;-80
2021/08/26 04:47:15;;;;;;;5.55;3.50;;;;;;;15.39;94.71;99652.55;1691197;84;21112;-78
2021/08/26 04:49:42;;;;;;;4.78;3.20;;;;;;;15.37;94.62;99653.13;1691001;84;21040;-77
2021/08/26 04:52:09;;;;;;;4.65;2.92;;;;;;;15.36;94.92;99660.23;1690981;84;21052;-78
2021/08/26 04:54:35;;;;;;;4.12;2.87;;;;;;;15.36;95.09;99655.42;1691104;84;21049;-78
2021/08/26 04:57:02;;;;;;;4.25;2.98;;;;;;;15.36;94.92;99651.44;1691022;84;21119;-79
2021/08/26 04:59:30;;;;;;;5.45;2.95;;;;;;;15.38;95.21;99653.52;1691106;84;21557;-79
2021/08/26 05:01:57;;;;;;;5.22;3.17;;;;;;;15.39;95.72;99653.43;1691094;84;21112;-79
2021/08/26 05:04:24;;;;;;;7.97;3.42;;;;;;;15.41;96.10;99655.97;1691012;84;21077;-79
2021/08/26 05:06:53;;;;;;;3.52;2.83;;;;;;;15.38;96.29;99654.84;1691283;84;21636;-79
2021/08/26 05:09:19;;;;;;;5.95;4.10;;;;;;;15.37;96.71;99651.35;1691208;84;22214;-79
2021/08/26 05:11:46;;;;;;;5.53;3.60;;;;;;;15.35;97.02;99645.28;1690839;84;21069;-78
2021/08/26 05:14:13;;;;;;;7.58;4.08;;;;;;;15.30;97.19;99652.22;1690779;84;21120;-79
2021/08/26 05:16:40;;;;;;;7.17;4.40;;;;;;;15.20;97.94;99653.73;1690901;84;21062;-81
2021/08/26 05:19:06;;;;;;;6.65;3.10;;;;;;;15.13;99.28;99649.77;1690969;84;21069;-79
2021/08/26 05:21:33;;;;;;;9.03;4.33;;;;;;;15.09;99.17;99650.46;1690783;84;22043;-79
2021/08/26 05:24:01;;;;;;;6.30;3.40;;;;;;;15.05;99.46;99650.75;1690891;84;21089;-79
2021/08/26 05:26:28;;;;;;;4.17;3.67;;;;;;;14.99;99.75;99653.30;1691218;84;21069;-77
2021/08/26 05:28:54;;;;;;;6.03;4.05;;;;;;;14.93;100.00;99654.16;1691047;84;21113;-79
2021/08/26 05:31:22;;;;;;;6.03;3.30;;;;;;;14.90;100.00;99657.37;1691151;84;21563;-79
2021/08/26 05:33:48;;;;;;;5.25;3.62;;;;;;;14.87;100.00;99662.88;1691008;84;21265;-79
2021/08/26 05:36:15;;;;;;;4.12;3.00;;;;;;;14.80;100.00;99664.20;1690854;84;21069;-80
2021/08/26 05:38:41;;;;;;;6.15;3.58;;;;;;;14.78;100.00;99663.45;1690929;84;21076;-79
2021/08/26 05:41:08;;;;;;;6.47;3.90;;;;;;;14.74;100.00;99661.92;1685762;84;21053;-79
2021/08/26 05:43:34;;;;;;;6.20;3.72;;;;;;;14.70;100.00;99665.73;1713310;83;21094;-78
2021/08/26 05:46:05;;;;;;;4.42;3.70;;;;;;;14.65;100.00;99661.16;1713625;83;21597;-79
2021/08/26 05:48:30;;;;;;;5.97;4.62;;;;;;;14.60;100.00;99669.39;1712830;82;21167;-80
2021/08/26 05:50:57;;;;;;;4.72;4.22;;;;;;;14.55;100.00;99666.66;1712889;83;21081;-80
2021/08/26 05:53:25;;;;;;;6.75;4.20;;;;;;;14.55;100.00;99671.96;1713019;82;21014;-80
2021/08/26 05:55:51;;;;;;;6.67;3.90;;;;;;;14.54;100.00;99666.23;1713032;82;21029;-80
2021/08/26 05:58:17;;;;;;;7.60;4.53;;;;;;;14.53;100.00;99668.52;1713524;83;21485;-82
2021/08/26 06:00:44;;;;;;;8.58;5.10;;;;;;;14.54;100.00;99659.19;1713191;83;21545;-80
2021/08/26 06:03:12;;;;;;;5.92;4.15;;;;;;;14.57;100.00;99655.50;1713358;82;21043;-79
2021/08/26 06:05:38;;;;;;;7.22;4.67;;;;;;;14.60;100.00;99648.67;1713752;83;20995;-79
2021/08/26 06:08:07;;;;;;;17.17;5.20;;;;;;;14.65;100.00;99646.59;1713583;83;21030;-79
2021/08/26 06:10:33;;;;;;;6.33;3.62;;;;;;;14.68;100.00;99640.64;1713058;82;22141;-81
2021/08/26 06:13:00;;;;;;;5.87;4.40;;;;;;;14.73;100.00;99639.52;1713663;83;21041;-79
2021/08/26 06:15:26;;;;;;;5.47;4.20;;;;;;;14.79;100.00;99645.73;1713236;83;21097;-79
2021/08/26 06:17:52;;;;;;;9.10;5.30;;;;;;;14.84;100.00;99647.17;1713186;83;20994;-78
2021/08/26 06:20:19;;;;;;;8.58;5.05;;;;;;;14.88;100.00;99648.69;1713080;82;21066;-77
2021/08/26 06:22:45;;;;;;;6.25;3.90;;;;;;;14.92;100.00;99651.98;1713271;82;21572;-79
2021/08/26 06:25:13;;;;;;;6.85;4.55;;;;;;;14.92;100.00;99646.68;1712789;83;21101;-79
2021/08/26 06:27:40;;;;;;;5.92;3.70;;;;;;;14.96;100.00;99647.36;1713415;83;21105;-78
2021/08/26 06:30:09;;;;;;;4.40;3.22;;;;;;;14.96;100.00;99639.40;1713475;83;21233;-79
2021/08/26 06:32:35;;;;;;;5.80;3.75;;;;;;;15.00;100.00;99643.53;1713268;82;21053;-80
2021/08/26 06:35:03;;;;;;;4.62;3.27;;;;;;;15.02;100.00;99654.45;1713661;83;21493;-80
2021/08/26 06:37:30;;;;;;;5.53;3.90;;;;;;;15.02;100.00;99652.25;1713392;82;21038;-79
2021/08/26 06:39:58;;;;;;;7.70;3.92;;;;;;;15.02;100.00;99653.58;1713020;82;21093;-79
2021/08/26 06:42:25;;;;;;;5.20;3.60;;;;;;;14.99;100.00;99661.25;1721751;83;21036;-78
2021/08/26 06:44:52;;;;;;;5.42;4.42;;;;;;;14.96;100.00;99665.91;1725980;83;21038;-80
2021/08/26 06:47:19;;;;;;;7.00;4.05;;;;;;;14.90;100.00;99662.67;1725931;83;21635;-80
2021/08/26 06:49:45;;;;;;;5.42;4.00;;;;;;;14.86;100.00;99671.79;1725784;82;21048;-81
2021/08/26 06:52:11;;;;;;;6.40;4.60;;;;;;;14.81;100.00;99672.52;1725890;83;21041;-77
2021/08/26 06:54:38;;;;;;;6.47;4.85;;;;;;;14.77;100.00;99675.02;1725925;83;21549;-79
2021/08/26 06:57:06;;;;;;;9.25;5.47;;;;;;;14.75;100.00;99680.87;1725967;82;21100;-79
2021/08/26 06:59:33;;;;;;;31.73;18.75;;;;;;;14.70;100.00;99671.03;1726445;83;21544;-79
2021/08/26 07:02:01;;;;;;;28.07;18.32;;;;;;;14.66;100.00;99673.01;1725359;82;21080;-80
2021/08/26 07:04:28;;;;;;;8.90;6.22;;;;;;;14.66;100.00;99677.46;1696656;84;21604;-80
2021/08/26 07:06:56;;;;;;;5.10;4.45;;;;;;;14.65;100.00;99676.62;1697030;84;21069;-82
2021/08/26 07:09:22;;;;;;;9.00;5.25;;;;;;;14.66;100.00;99678.79;1696861;84;21073;-81
2021/08/26 07:11:56;;;;;;;6.58;4.58;;;;;;;14.66;100.00;99684.94;1696824;84;21989;-81
2021/08/26 07:14:27;;;;;;;9.38;5.47;;;;;;;14.65;100.00;99683.69;1697280;84;21065;-83
2021/08/26 07:16:53;;;;;;;9.65;5.35;;;;;;;14.63;100.00;99681.16;1697145;84;21670;-81
2021/08/26 07:19:20;;;;;;;5.75;4.50;;;;;;;14.66;100.00;99688.06;1697387;84;21014;-79
2021/08/26 07:21:48;;;;;;;8.68;5.28;;;;;;;14.70;100.00;99689.59;1697000;84;21085;-79
2021/08/26 07:24:15;;;;;;;6.58;4.67;;;;;;;14.72;100.00;99686.83;1697118;83;21123;-80
2021/08/26 07:26:43;;;;;;;7.15;4.70;;;;;;;14.71;100.00;99695.73;1697460;84;21595;-79
2021/08/26 07:29:09;;;;;;;8.28;4.95;;;;;;;14.72;100.00;99698.27;1697559;84;21049;-79
2021/08/26 07:31:36;;;;;;;7.15;4.55;;;;;;;14.75;100.00;99701.23;1696940;84;21085;-79
2021/08/26 07:34:03;;;;;;;6.62;4.95;;;;;;;14.75;100.00;99697.26;1697243;84;21104;-80
2021/08/26 07:36:30;;;;;;;7.25;4.47;;;;;;;14.72;100.00;99697.42;1696984;84;21166;-81
2021/08/26 07:38:56;;;;;;;7.53;5.50;;;;;;;14.71;100.00;99697.91;1696905;84;21445;-78
2021/08/26 07:41:25;;;;;;;9.93;5.60;;;;;;;14.67;100.00;99697.70;1695471;84;21083;-79
2021/08/26 07:43:52;;;;;;;8.15;5.37;;;;;;;14.68;100.00;99698.10;1684446;85;21025;-79
2021/08/26 07:46:20;;;;;;;7.00;5.03;;;;;;;14.71;100.00;99698.39;1684468;84;21062;-80
2021/08/26 07:48:47;;;;;;;10.13;6.25;;;;;;;14.77;100.00;99694.89;1684404;85;21194;-79
2021/08/26 07:51:13;;;;;;;12.98;5.95;;;;;;;14.83;100.00;99694.49;1684460;84;21033;-78
2021/08/26 07:53:40;;;;;;;12.13;6.30;;;;;;;14.88;100.00;99704.36;1684408;84;21065;-79
2021/08/26 07:56:07;;;;;;;6.75;5.40;;;;;;;14.90;100.00;99699.79;1684671;85;21101;-80
2021/08/26 07:58:33;;;;;;;7.72;5.30;;;;;;;14.94;100.00;99703.13;1684543;85;21073;-79
2021/08/26 08:01:01;;;;;;;10.25;7.10;;;;;;;14.96;100.00;99700.38;1685080;85;22192;-77
2021/08/26 08:03:32;;;;;;;9.40;6.83;;;;;;;14.98;100.00;99698.49;1684428;85;21128;-79
2021/08/26 08:05:57;;;;;;;11.33;7.40;;;;;;;15.01;100.00;99707.57;1684331;84;21060;-80
2021/08/26 08:08:25;;;;;;;11.45;7.33;;;;;;;14.93;100.00;99708.50;1684335;84;21636;-80
2021/08/26 08:10:53;;;;;;;9.35;7.28;;;;;;;14.93;100.00;99707.18;1684734;85;21081;-79
2021/08/26 08:13:21;;;;;;;9.90;7.72;;;;;;;14.95;100.00;99712.77;1684659;84;21078;-80
2021/08/26 08:15:47;;;;;;;10.38;8.55;;;;;;;14.99;100.00;99713.44;1684648;85;21018;-80
2021/08/26 08:18:13;;;;;;;11.10;7.40;;;;;;;14.99;100.00;99708.14;1684974;84;21399;-80
2021/08/26 08:20:40;;;;;;;16.10;8.28;;;;;;;15.00;100.00;99709.83;1684337;84;21037;-80
2021/08/26 08:23:07;;;;;;;10.23;7.12;;;;;;;14.97;100.00;99714.00;1684496;83;21553;-78
2021/08/26 08:25:33;;;;;;;12.60;8.30;;;;;;;14.97;100.00;99703.40;1684879;85;21120;-79
2021/08/26 08:28:00;;;;;;;9.90;8.20;;;;;;;14.97;100.00;99702.07;1684538;84;21502;-78
2021/08/26 08:30:26;;;;;;;19.55;8.78;;;;;;;15.01;100.00;99703.59;1684691;84;21066;-78
2021/08/26 08:32:58;;;;;;;14.50;9.65;;;;;;;15.05;100.00;99695.84;1684520;84;21182;-80
2021/08/26 08:35:24;;;;;;;14.85;8.70;;;;;;;15.10;100.00;99691.93;1684892;84;22248;-79
2021/08/26 08:37:52;;;;;;;9.58;8.20;;;;;;;15.17;100.00;99693.73;1684525;85;21809;-79
2021/08/26 08:40:18;;;;;;;8.35;6.92;;;;;;;15.24;100.00;99696.37;1684593;85;21086;-79
2021/08/26 08:42:47;;;;;;;8.40;7.22;;;;;;;15.32;100.00;99695.87;1691329;84;21074;-79
2021/08/26 08:45:14;;;;;;;10.43;8.40;;;;;;;15.34;100.00;99695.30;1697317;84;21060;-79
2021/08/26 08:47:40;;;;;;;10.63;6.78;;;;;;;15.36;100.00;99695.22;1697060;84;21005;-79
2021/08/26 08:50:08;;;;;;;15.70;7.87;;;;;;;15.37;100.00;99694.25;1696810;84;21096;-78
2021/08/26 08:52:37;;;;;;;11.63;7.92;;;;;;;15.44;100.00;99690.28;1697234;84;21068;-80
2021/08/26 08:55:09;;;;;;;9.50;7.58;;;;;;;15.50;100.00;99695.17;1713361;83;21581;-78
2021/08/26 08:57:41;;;;;;;10.70;8.53;;;;;;;15.48;100.00;99697.07;1726484;82;21194;-79
2021/08/26 09:00:12;;;;;;;13.93;8.25;;;;;;;15.49;100.00;99690.83;1726540;83;21038;-79
2021/08/26 09:02:39;;;;;;;9.15;7.28;;;;;;;15.53;100.00;99687.04;1725943;82;21541;-80
2021/08/26 09:05:06;;;;;;;12.13;6.92;;;;;;;15.54;100.00;99691.38;1726159;82;21079;-78
2021/08/26 09:07:34;;;;;;;6.58;5.87;;;;;;;15.53;99.29;99694.52;1726278;83;21730;-79
2021/08/26 09:10:00;;;;;;;11.53;8.45;;;;;;;15.51;98.37;99695.56;1726141;82;21191;-79
2021/08/26 09:12:46;;;;;;;20.43;14.20;;;;;;;15.51;98.77;99692.43;1726054;82;21120;-80
2021/08/26 09:15:26;;;;;;;11.35;8.20;;;;;;;15.52;99.29;99694.61;1725476;82;21208;-78
2021/08/26 09:17:51;;;;;;;10.43;8.68;;;;;;;15.52;99.19;99693.28;1691318;84;21079;-80
2021/08/26 09:20:19;;;;;;;12.80;9.90;;;;;;;15.53;99.27;99697.66;1665483;84;21012;-79
2021/08/26 09:22:46;;;;;;;11.45;8.48;;;;;;;15.57;99.54;99691.66;1691234;83;21114;-79
2021/08/26 09:25:14;;;;;;;16.62;11.95;;;;;;;15.58;99.20;99695.55;1691420;84;21067;-79
2021/08/26 09:27:44;;;;;;;10.30;8.53;;;;;;;15.59;99.84;99693.25;1673818;85;21514;-79
2021/08/26 09:30:19;;;;;;;11.10;9.88;;;;;;;15.61;99.96;99690.03;1673643;85;21140;-80
2021/08/26 09:32:59;;;;;;;13.18;9.75;;;;;;;15.60;99.73;99690.99;1673641;85;21074;-80
2021/08/26 09:35:30;;;;;;;14.10;9.93;;;;;;;15.64;100.00;99693.80;1673523;85;21122;-81
2021/08/26 09:38:00;;;;;;;11.48;8.85;;;;;;;15.63;99.30;99688.13;1673813;85;21049;-79
2021/08/26 09:40:31;;;;;;;12.90;9.98;;;;;;;15.64;99.65;99684.51;1673855;85;21127;-81
2021/08/26 09:43:04;;;;;;;13.03;10.15;;;;;;;15.68;99.32;99688.67;1669900;85;21620;-78
2021/08/26 09:45:33;;;;;;;12.47;11.15;;;;;;;15.71;98.86;99695.16;1713195;83;21077;-80
2021/08/26 09:48:11;;;;;;;15.38;11.88;;;;;;;15.68;97.73;99700.62;1713555;83;21038;-79
2021/08/26 09:50:48;;;;;;;11.88;10.55;;;;;;;15.67;98.26;99702.91;1713062;83;21042;-79
2021/08/26 09:53:20;;;;;;;11.83;10.55;;;;;;;15.61;98.92;99705.11;1713519;83;21119;-79
2021/08/26 09:57:36;;;;;;;14.05;10.35;;;;;;;15.58;98.74;99695.55;1852198;77;23284;-79
2021/08/26 10:00:06;;;;;;;11.10;8.95;;;;;;;15.52;99.01;99702.56;1824221;78;21576;-79
2021/08/26 10:02:48;;;;;;;10.25;8.50;;;;;;;15.53;98.88;99705.13;1824090;78;21942;-79
2021/08/26 10:05:15;;;;;;;12.95;9.50;;;;;;;15.52;99.02;99698.58;1823948;78;21028;-80
2021/08/26 10:07:41;;;;;;;15.58;10.10;;;;;;;15.53;98.90;99697.66;1824148;78;21049;-79
2021/08/26 10:10:08;;;;;;;11.53;9.80;;;;;;;15.52;98.81;99695.93;1824129;78;20957;-79
2021/08/26 10:12:36;;;;;;;14.78;10.88;;;;;;;15.53;99.66;99697.66;1824109;78;21096;-78
2021/08/26 10:15:03;;;;;;;9.05;7.75;;;;;;;15.55;100.00;99695.72;1824157;78;21132;-78
2021/08/26 10:17:29;;;;;;;12.70;11.08;;;;;;;15.58;100.00;99699.53;1824734;78;21029;-80
2021/08/26 10:19:56;;;;;;;16.93;11.78;;;;;;;15.60;100.00;99690.99;1791142;78;21527;-80
2021/08/26 10:22:22;;;;;;;11.83;10.03;;;;;;;15.65;100.00;99683.58;1798414;78;21071;-80
2021/08/26 10:24:48;;;;;;;12.78;9.68;;;;;;;15.69;100.00;99677.12;1785459;80;21031;-81
2021/08/26 10:27:18;;;;;;;14.87;10.13;;;;;;;15.77;99.40;99683.77;1785822;80;21096;-80
2021/08/26 10:29:47;;;;;;;12.68;10.38;;;;;;;15.86;99.90;99688.47;1785290;80;21033;-79
2021/08/26 10:32:26;;;;;;;11.78;9.78;;;;;;;15.92;98.00;99688.08;1785347;80;21208;-79
2021/08/26 10:35:14;;;;;;;12.10;9.43;;;;;;;15.95;97.88;99679.89;1785324;80;21088;-80
2021/08/26 10:37:55;;;;;;;17.12;11.45;;;;;;;16.01;97.83;99682.16;1785234;80;20974;-79
2021/08/26 10:40:37;;;;;;;13.78;11.33;;;;;;;16.05;98.52;99675.66;1785149;80;21091;-79
2021/08/26 10:43:06;;;;;;;12.58;9.10;;;;;;;16.11;99.13;99688.53;1785219;80;21068;-78
2021/08/26 10:45:50;;;;;;;14.30;10.82;;;;;;;16.17;98.41;99691.73;1785312;80;21068;-80
2021/08/26 10:48:20;;;;;;;12.70;10.20;;;;;;;16.13;97.17;99691.09;1785606;80;21048;-80
2021/08/26 10:51:06;;;;;;;12.68;10.23;;;;;;;16.08;96.59;99678.12;1785384;80;21103;-80
2021/08/26 10:53:40;;;;;;;12.70;10.75;;;;;;;16.04;96.50;99672.64;1759967;80;21154;-80
2021/08/26 10:56:29;;;;;;;13.08;9.83;;;;;;;16.09;96.74;99671.84;1787163;80;21005;-80
2021/08/26 10:59:06;;;;;;;12.03;8.93;;;;;;;16.13;96.33;99678.66;1791599;80;21024;-80
2021/08/26 11:01:44;;;;;;;15.93;9.15;;;;;;;16.13;94.84;99666.70;1791146;80;21016;-79
2021/08/26 11:04:25;;;;;;;11.55;9.35;;;;;;;16.15;94.92;99674.10;1791441;80;21056;-79
2021/08/26 11:06:50;;;;;;;12.58;7.92;;;;;;;16.19;95.07;99684.51;1790724;80;21896;-80
2021/08/26 11:09:21;;;;;;;10.50;8.35;;;;;;;16.21;95.02;99669.32;1790577;80;21466;-79
2021/08/26 11:11:53;;;;;;;11.70;9.10;;;;;;;16.25;94.82;99674.32;1790656;80;21072;-79
2021/08/26 11:14:23;;;;;;;11.00;8.30;;;;;;;16.27;94.68;99667.59;1790509;80;21511;-78
2021/08/26 11:16:55;;;;;;;12.40;9.13;;;;;;;16.26;95.14;99669.85;1790476;80;21040;-78
2021/08/26 11:19:29;;;;;;;9.58;8.05;;;;;;;16.28;94.92;99671.45;1790635;80;21107;-79
2021/08/26 11:22:03;;;;;;;11.63;8.78;;;;;;;16.31;95.06;99666.39;1790304;80;21502;-78
2021/08/26 11:24:38;;;;;;;9.90;8.25;;;;;;;16.35;94.52;99666.08;1789849;80;21044;-80
2021/08/26 11:27:21;;;;;;;11.38;9.13;;;;;;;16.35;94.52;99666.57;1790496;80;21036;-78
2021/08/26 11:29:50;;;;;;;10.65;9.03;;;;;;;16.41;94.36;99668.81;1789417;80;21558;-79
2021/08/26 11:32:19;;;;;;;10.03;8.28;;;;;;;16.45;94.12;99666.33;1790578;80;21105;-80
2021/08/26 11:34:55;;;;;;;13.35;9.05;;;;;;;16.52;93.93;99665.43;1791058;80;22181;-78
2021/08/26 11:37:32;;;;;;;10.85;9.33;;;;;;;16.60;93.91;99654.26;1790403;80;21570;-79
2021/08/26 11:40:07;;;;;;;13.13;10.08;;;;;;;16.66;93.04;99653.84;1790643;80;21024;-78